PUJ weather

Punta Cana International Airport
Punta Cana, La Altagracia Province, Dominican Republic

Public forecast

Using degrees Celsius for public forecast. Weather courtesy of forecast.io.

METAR (pilot weather report)

Retrieved 2019/04/22 02:00 UTC (7 minutes ago):

MDPC 220200Z 08008KT 9999 SCT018 25/22 Q1017

TAF (pilot weather forecast)

Forecast is more than 12 hours old.

Retrieved 2019/04/21 06:36 UTC (20 hours ago):

TAF MDPC 210400Z 2106/2206 12008KT 9999 FEW018 PROB30 2106/2112 8000 - SHRA SCT016